createdAt,value
2022-10-04T00:01:55.825Z,14.25
2022-10-04T00:04:33.174Z,14.19
2022-10-04T00:07:05.677Z,14.12
2022-10-04T00:09:43.551Z,14.10
2022-10-04T00:12:19.507Z,14.13
2022-10-04T00:14:48.044Z,13.92
2022-10-04T00:17:23.782Z,14.01
2022-10-04T00:19:52.591Z,13.84
2022-10-04T00:25:50.154Z,13.75
2022-10-04T00:28:20.985Z,13.81
2022-10-04T00:31:16.478Z,13.93
2022-10-04T00:34:09.690Z,13.92
2022-10-04T00:37:05.725Z,13.69
2022-10-04T00:39:33.102Z,13.62
2022-10-04T00:42:39.758Z,13.75
2022-10-04T00:45:25.504Z,13.70
2022-10-04T00:48:04.231Z,13.69
2022-10-04T00:50:45.123Z,13.70
2022-10-04T00:53:39.031Z,13.77
2022-10-04T00:56:14.113Z,13.58
2022-10-04T00:59:14.396Z,13.70
2022-10-04T01:01:45.842Z,13.54
2022-10-04T01:04:25.533Z,13.58
2022-10-04T01:06:53.652Z,13.38
2022-10-04T01:09:22.772Z,13.35
2022-10-04T01:12:02.680Z,13.48
2022-10-04T01:14:45.558Z,13.43
2022-10-04T01:17:12.979Z,13.30
2022-10-04T01:19:51.554Z,13.45
2022-10-04T01:22:37.088Z,13.50
2022-10-04T01:25:05.065Z,13.18
2022-10-04T01:27:37.878Z,13.28
2022-10-04T01:30:09.739Z,13.25
2022-10-04T01:32:39.058Z,13.19
2022-10-04T01:35:12.159Z,13.18
2022-10-04T01:37:40.292Z,13.12
2022-10-04T01:40:11.835Z,13.19
2022-10-04T01:42:57.027Z,13.26
2022-10-04T01:45:28.856Z,13.07
2022-10-04T01:48:03.902Z,13.11
2022-10-04T01:50:38.142Z,13.10
2022-10-04T01:53:43.970Z,13.28
2022-10-04T01:56:22.172Z,13.14
2022-10-04T01:58:54.636Z,13.06
2022-10-04T02:01:35.572Z,12.99
2022-10-04T02:04:22.535Z,13.08
2022-10-04T02:06:56.584Z,12.95
2022-10-04T02:09:28.677Z,12.96
2022-10-04T02:11:58.700Z,12.92
2022-10-04T02:14:31.177Z,12.96
2022-10-04T02:17:00.328Z,12.94
2022-10-04T02:19:35.382Z,13.01
2022-10-04T02:22:04.653Z,12.90
2022-10-04T02:24:35.873Z,12.95
2022-10-04T02:27:03.674Z,12.91
2022-10-04T02:29:31.139Z,12.92
2022-10-04T02:32:18.546Z,13.00
2022-10-04T02:34:48.027Z,13.11
2022-10-04T02:37:15.674Z,13.14
2022-10-04T02:39:53.940Z,13.26
2022-10-04T02:42:34.299Z,13.29
2022-10-04T02:45:24.891Z,13.40
2022-10-04T02:48:11.927Z,13.37
2022-10-04T02:50:49.724Z,13.45
2022-10-04T02:54:03.179Z,13.56
2022-10-04T02:56:33.416Z,13.49
2022-10-04T02:59:03.871Z,13.53
2022-10-04T03:02:01.404Z,13.76
2022-10-04T03:04:32.839Z,13.69
2022-10-04T03:07:06.882Z,13.80
2022-10-04T03:09:36.772Z,13.82
2022-10-04T03:12:06.080Z,13.92
2022-10-04T03:14:34.411Z,13.97
2022-10-04T03:17:04.402Z,14.05
2022-10-04T03:19:33.858Z,14.10
2022-10-04T03:22:12.103Z,14.22
2022-10-04T03:24:53.664Z,14.41
2022-10-04T03:27:26.117Z,14.60
2022-10-04T03:29:58.867Z,14.83
2022-10-04T03:32:30.978Z,15.10
2022-10-04T03:35:07.904Z,15.38
2022-10-04T03:37:38.086Z,15.70
2022-10-04T03:40:10.042Z,16.00
2022-10-04T03:42:39.180Z,16.37
2022-10-04T03:45:17.061Z,16.63
2022-10-04T03:47:48.850Z,17.01
2022-10-04T03:50:26.954Z,17.30
2022-10-04T03:53:01.850Z,17.75
2022-10-04T03:55:36.491Z,18.06
2022-10-04T03:58:04.511Z,18.71
2022-10-04T04:00:32.372Z,19.13
2022-10-04T04:03:04.130Z,19.51
2022-10-04T04:06:03.458Z,19.67
2022-10-04T04:08:34.861Z,20.51
2022-10-04T04:11:05.892Z,20.96
2022-10-04T04:14:04.526Z,21.03
2022-10-04T04:16:32.919Z,21.97
2022-10-04T04:19:03.710Z,22.38
2022-10-04T04:21:32.243Z,22.89
2022-10-04T04:24:03.697Z,23.35
2022-10-04T04:26:41.392Z,23.67
2022-10-04T04:29:17.969Z,24.24
2022-10-04T04:32:06.272Z,24.33
2022-10-04T04:34:45.656Z,25.15
2022-10-04T04:37:13.090Z,25.65
2022-10-04T04:39:45.541Z,26.12
2022-10-04T04:42:21.403Z,26.25
2022-10-04T04:44:53.562Z,26.89
2022-10-04T04:47:36.478Z,26.94
2022-10-04T04:50:28.123Z,27.12
2022-10-04T04:53:27.027Z,27.45
2022-10-04T04:56:04.843Z,27.76
2022-10-04T04:58:41.857Z,28.34
2022-10-04T05:01:26.825Z,28.30
2022-10-04T05:04:05.566Z,28.77
2022-10-04T05:06:35.050Z,29.28
2022-10-04T05:09:04.326Z,29.66
2022-10-04T05:11:35.307Z,29.79
2022-10-04T05:14:12.799Z,29.77
2022-10-04T05:16:43.509Z,30.32
2022-10-04T05:19:24.378Z,30.52
2022-10-04T05:21:56.905Z,31.02
2022-10-04T05:24:45.196Z,30.91
2022-10-04T05:27:23.577Z,31.63
2022-10-04T05:30:06.451Z,31.62
2022-10-04T05:32:52.232Z,32.38
2022-10-04T05:35:22.700Z,32.58
2022-10-04T05:37:59.119Z,33.01
2022-10-04T05:40:38.068Z,33.39
2022-10-04T05:43:32.645Z,33.05
2022-10-04T05:46:23.551Z,33.01
2022-10-04T05:48:55.094Z,33.24
2022-10-04T05:51:29.585Z,33.14
2022-10-04T05:54:04.574Z,33.10
2022-10-04T05:56:55.580Z,33.18
2022-10-04T05:59:58.465Z,32.87
2022-10-04T06:02:44.323Z,33.00
2022-10-04T06:05:28.170Z,32.93
2022-10-04T06:08:17.324Z,32.69
2022-10-04T06:11:11.173Z,32.49
2022-10-04T06:14:04.625Z,32.45
2022-10-04T06:16:41.252Z,32.72
2022-10-04T06:19:31.123Z,32.79
2022-10-04T06:22:15.035Z,32.74
2022-10-04T06:24:45.425Z,33.26
2022-10-04T06:27:21.991Z,33.37
2022-10-04T06:30:13.077Z,33.58
2022-10-04T06:33:14.273Z,33.32
2022-10-04T06:35:44.748Z,33.46
2022-10-04T06:38:49.599Z,33.19
2022-10-04T06:41:39.890Z,33.23
2022-10-04T06:44:29.325Z,33.13
2022-10-04T06:47:11.687Z,33.02
2022-10-04T06:49:49.414Z,32.95
2022-10-04T06:52:41.557Z,32.74
2022-10-04T06:55:21.468Z,32.58
2022-10-04T06:58:10.224Z,32.54
2022-10-04T07:00:53.277Z,32.30
2022-10-04T07:03:39.915Z,32.16
2022-10-04T07:06:11.616Z,32.03
2022-10-04T07:08:52.894Z,31.83
2022-10-04T07:11:30.484Z,31.64
2022-10-04T07:14:00.608Z,31.48
2022-10-04T07:16:56.303Z,31.34
2022-10-04T07:19:30.872Z,31.14
2022-10-04T07:22:07.550Z,31.02
2022-10-04T07:24:53.506Z,30.77
2022-10-04T07:27:22.937Z,30.58
2022-10-04T07:29:56.203Z,30.46
2022-10-04T07:32:37.034Z,30.37
2022-10-04T07:35:10.681Z,30.17
2022-10-04T07:37:53.954Z,30.03
2022-10-04T07:40:30.187Z,29.80
2022-10-04T07:43:04.512Z,29.59
2022-10-04T07:45:41.401Z,29.44
2022-10-04T07:48:23.317Z,29.21
2022-10-04T07:51:18.784Z,29.13
2022-10-04T07:53:59.543Z,28.61
2022-10-04T07:56:44.605Z,28.53
2022-10-04T07:59:35.224Z,28.33
2022-10-04T08:02:32.459Z,27.95
2022-10-04T08:05:29.594Z,27.82
2022-10-04T08:08:00.692Z,27.35
2022-10-04T08:10:38.140Z,27.09
2022-10-04T08:13:29.207Z,26.86
2022-10-04T08:16:04.318Z,26.78
2022-10-04T08:18:49.866Z,26.62
2022-10-04T08:21:27.098Z,26.30
2022-10-04T08:24:15.204Z,26.21
2022-10-04T08:27:15.850Z,25.86
2022-10-04T08:30:01.179Z,25.27
2022-10-04T08:32:43.116Z,25.10
2022-10-04T08:35:50.138Z,24.91
2022-10-04T08:38:18.224Z,24.21
2022-10-04T08:41:16.567Z,24.50
2022-10-04T08:44:15.047Z,24.28
2022-10-04T08:47:05.567Z,24.08
2022-10-04T08:49:54.097Z,23.98
2022-10-04T08:52:53.758Z,23.78
2022-10-04T08:55:35.296Z,23.70
2022-10-04T08:58:05.723Z,23.50
2022-10-04T09:01:18.507Z,23.61
2022-10-04T09:04:01.948Z,23.38
2022-10-04T09:06:41.209Z,23.19
2022-10-04T09:09:39.720Z,23.19
2022-10-04T09:12:13.294Z,22.78
2022-10-04T09:14:51.523Z,22.64
2022-10-04T09:17:23.670Z,22.52
2022-10-04T09:19:55.221Z,22.39
2022-10-04T09:22:57.477Z,22.64
2022-10-04T09:25:47.187Z,22.23
2022-10-04T09:28:47.375Z,22.34
2022-10-04T09:31:51.538Z,22.29
2022-10-04T09:34:43.346Z,21.99
2022-10-04T09:37:13.709Z,21.83
2022-10-04T09:40:01.641Z,21.95
2022-10-04T09:42:33.897Z,21.58
2022-10-04T09:45:18.277Z,21.68
2022-10-04T09:48:25.407Z,21.84
2022-10-04T09:51:08.491Z,21.67
2022-10-04T09:53:53.161Z,21.50
2022-10-04T09:56:35.737Z,21.50
2022-10-04T09:59:37.705Z,21.56
2022-10-04T10:02:07.994Z,21.73
2022-10-04T10:04:38.249Z,21.27
2022-10-04T10:07:39.825Z,21.42
2022-10-04T10:10:44.390Z,21.35
2022-10-04T10:13:41.425Z,21.25
2022-10-04T10:16:21.272Z,21.20
2022-10-04T10:18:59.475Z,21.17
2022-10-04T10:22:06.759Z,21.23
2022-10-04T10:25:08.707Z,21.19
2022-10-04T10:28:03.075Z,20.88
2022-10-04T10:30:36.184Z,20.88
2022-10-04T10:33:30.236Z,21.21
2022-10-04T10:36:10.202Z,21.13
2022-10-04T10:38:46.740Z,21.17
2022-10-04T10:41:42.101Z,21.20
2022-10-04T10:44:09.651Z,20.80
2022-10-04T10:47:05.940Z,21.06
2022-10-04T10:49:44.879Z,20.96
2022-10-04T10:52:39.961Z,21.18
2022-10-04T10:55:28.986Z,21.00
2022-10-04T10:58:26.661Z,21.03
2022-10-04T11:01:12.787Z,20.77
2022-10-04T11:03:55.930Z,20.95
2022-10-04T11:06:51.143Z,21.01
2022-10-04T11:09:46.452Z,20.99
2022-10-04T11:12:19.795Z,20.83
2022-10-04T11:15:25.867Z,21.02
2022-10-04T11:18:32.183Z,20.96
2022-10-04T11:21:22.131Z,20.79
2022-10-04T11:24:17.207Z,20.85
2022-10-04T11:26:59.474Z,20.83
2022-10-04T11:29:41.665Z,20.83
2022-10-04T11:32:37.235Z,20.96
2022-10-04T11:35:37.128Z,21.03
2022-10-04T11:38:29.956Z,20.99
2022-10-04T11:41:15.852Z,20.80
2022-10-04T11:43:52.779Z,20.88
2022-10-04T11:46:23.409Z,20.73
2022-10-04T11:49:23.599Z,20.82
2022-10-04T11:52:02.314Z,20.64
2022-10-04T11:54:48.105Z,20.63
2022-10-04T11:57:40.292Z,20.53
2022-10-04T12:00:26.237Z,20.45
2022-10-04T12:03:21.264Z,20.52
2022-10-04T12:06:14.836Z,20.73
2022-10-04T12:08:54.476Z,20.65
2022-10-04T12:11:59.148Z,20.44
2022-10-04T12:14:56.856Z,20.53
2022-10-04T12:17:46.406Z,20.43
2022-10-04T12:20:48.447Z,20.56
2022-10-04T12:23:25.186Z,20.40
2022-10-04T12:26:19.229Z,20.24
2022-10-04T12:29:05.427Z,20.02
2022-10-04T12:31:58.941Z,19.99
2022-10-04T12:34:59.449Z,20.29
2022-10-04T12:37:43.120Z,20.23
2022-10-04T12:40:10.540Z,20.06
2022-10-04T12:42:50.253Z,20.18
2022-10-04T12:45:17.937Z,19.94
2022-10-04T12:47:51.511Z,20.07
2022-10-04T12:50:31.814Z,20.06
2022-10-04T12:53:21.317Z,19.90
2022-10-04T12:56:22.593Z,20.02
2022-10-04T12:59:18.974Z,19.80
2022-10-04T13:02:21.399Z,19.87
2022-10-04T13:04:55.682Z,19.67
2022-10-04T13:07:44.670Z,19.60
2022-10-04T13:10:37.430Z,19.60
2022-10-04T13:13:23.539Z,19.58
2022-10-04T13:19:36.203Z,19.47
2022-10-04T13:25:52.411Z,19.34
2022-10-04T13:28:25.619Z,19.15
2022-10-04T13:31:07.092Z,19.37
2022-10-04T13:33:40.697Z,19.23
2022-10-04T13:36:07.996Z,19.52
2022-10-04T13:38:54.021Z,19.12
2022-10-04T13:41:36.324Z,19.23
2022-10-04T13:44:33.487Z,19.30
2022-10-04T13:47:24.735Z,19.03
2022-10-04T13:50:29.184Z,19.12
2022-10-04T13:53:15.269Z,18.85
2022-10-04T13:56:18.349Z,18.95
2022-10-04T13:58:57.625Z,18.85
2022-10-04T14:01:33.732Z,18.76
2022-10-04T14:04:28.664Z,18.69
2022-10-04T14:07:12.660Z,18.64
2022-10-04T14:09:55.397Z,18.57
2022-10-04T14:12:36.841Z,18.42
2022-10-04T14:15:39.980Z,18.40
2022-10-04T14:18:28.616Z,18.29
2022-10-04T14:21:21.278Z,18.19
2022-10-04T14:24:16.633Z,18.14
2022-10-04T14:27:09.864Z,17.93
2022-10-04T14:30:08.346Z,17.84
2022-10-04T14:32:57.460Z,17.87
2022-10-04T14:35:33.900Z,17.64
2022-10-04T14:38:04.660Z,17.54
2022-10-04T14:40:40.929Z,17.54
2022-10-04T14:43:35.732Z,17.58
2022-10-04T14:46:09.195Z,17.39
2022-10-04T14:48:51.490Z,17.74
2022-10-04T14:51:44.848Z,17.53
2022-10-04T14:54:29.309Z,17.47
2022-10-04T14:57:34.561Z,17.41
2022-10-04T15:00:23.984Z,17.36
2022-10-04T15:03:30.061Z,17.12
2022-10-04T15:06:10.938Z,17.15
2022-10-04T15:09:05.363Z,17.10
2022-10-04T15:12:21.616Z,17.15
2022-10-04T15:15:03.515Z,16.93
2022-10-04T15:17:38.133Z,16.88
2022-10-04T15:20:22.617Z,16.97
2022-10-04T15:22:57.616Z,16.80
2022-10-04T15:25:44.841Z,16.93
2022-10-04T15:28:43.289Z,16.94
2022-10-04T15:31:20.781Z,16.74
2022-10-04T15:34:22.216Z,16.84
2022-10-04T15:37:12.639Z,16.82
2022-10-04T15:39:42.870Z,16.47
2022-10-04T15:42:25.758Z,16.66
2022-10-04T15:45:09.720Z,16.48
2022-10-04T15:47:55.598Z,16.43
2022-10-04T15:50:32.289Z,16.57
2022-10-04T15:53:20.297Z,16.71
2022-10-04T15:56:10.200Z,16.66
2022-10-04T15:58:56.288Z,16.66
2022-10-04T16:02:05.125Z,16.64
2022-10-04T16:05:03.772Z,16.63
2022-10-04T16:08:03.965Z,16.47
2022-10-04T16:11:00.697Z,16.42
2022-10-04T16:13:31.047Z,16.06
2022-10-04T16:16:16.639Z,16.21
2022-10-04T16:18:55.086Z,15.96
2022-10-04T16:21:52.921Z,16.06
2022-10-04T16:24:20.310Z,15.74
2022-10-04T16:27:16.764Z,16.00
2022-10-04T16:30:28.116Z,15.91
2022-10-04T16:32:58.898Z,16.14
2022-10-04T16:35:42.284Z,15.87
2022-10-04T16:38:12.471Z,15.65
2022-10-04T16:40:52.063Z,15.72
2022-10-04T16:43:19.420Z,15.54
2022-10-04T16:46:05.021Z,15.70
2022-10-04T16:48:41.641Z,15.83
2022-10-04T16:51:18.151Z,15.91
2022-10-04T16:54:23.856Z,15.93
2022-10-04T16:56:57.597Z,15.69
2022-10-04T16:59:37.103Z,15.99
2022-10-04T17:02:25.852Z,15.69
2022-10-04T17:04:56.509Z,15.49
2022-10-04T17:07:27.951Z,15.33
2022-10-04T17:09:58.295Z,15.19
2022-10-04T17:12:45.881Z,15.18
2022-10-04T17:15:27.922Z,15.38
2022-10-04T17:18:34.550Z,15.39
2022-10-04T17:21:34.048Z,15.37
2022-10-04T17:24:20.801Z,15.04
2022-10-04T17:27:19.226Z,15.06
2022-10-04T17:30:03.666Z,14.92
2022-10-04T17:32:47.199Z,14.94
2022-10-04T17:35:26.806Z,14.62
2022-10-04T17:38:00.485Z,14.68
2022-10-04T17:40:37.969Z,14.97
2022-10-04T17:43:12.372Z,14.51
2022-10-04T17:46:08.382Z,14.59
2022-10-04T17:49:06.038Z,14.56
2022-10-04T17:52:00.249Z,14.46
2022-10-04T17:54:55.383Z,14.48
2022-10-04T17:57:35.715Z,14.40
2022-10-04T18:00:11.736Z,14.42
2022-10-04T18:03:10.372Z,14.48
2022-10-04T18:05:46.598Z,14.38
2022-10-04T18:08:41.835Z,14.44
2022-10-04T18:11:33.610Z,14.37
2022-10-04T18:14:10.886Z,14.19
2022-10-04T18:16:56.574Z,14.32
2022-10-04T18:19:42.640Z,14.15
2022-10-04T18:22:15.977Z,14.11
2022-10-04T18:25:07.577Z,14.09
2022-10-04T18:27:50.452Z,14.16
2022-10-04T18:30:21.143Z,13.97
2022-10-04T18:32:55.040Z,13.96
2022-10-04T18:35:31.556Z,13.96
2022-10-04T18:38:05.391Z,13.91
2022-10-04T18:40:35.599Z,13.78
2022-10-04T18:43:03.129Z,13.65
2022-10-04T18:45:34.850Z,13.77
2022-10-04T18:48:15.603Z,13.81
2022-10-04T18:50:45.572Z,13.54
2022-10-04T18:53:34.546Z,13.77
2022-10-04T18:56:04.191Z,13.46
2022-10-04T18:59:04.940Z,13.44
2022-10-04T19:02:06.853Z,13.63
2022-10-04T19:04:48.073Z,13.41
2022-10-04T19:07:15.462Z,13.34
2022-10-04T19:09:51.728Z,13.45
2022-10-04T19:12:31.543Z,13.38
2022-10-04T19:15:37.511Z,13.43
2022-10-04T19:18:48.453Z,13.46
2022-10-04T19:21:26.654Z,13.16
2022-10-04T19:24:21.126Z,13.29
2022-10-04T19:26:54.675Z,13.14
2022-10-04T19:29:39.551Z,13.17
2022-10-04T19:32:42.922Z,13.32
2022-10-04T19:35:35.358Z,13.13
2022-10-04T19:38:20.915Z,12.99
2022-10-04T19:40:55.566Z,12.99
2022-10-04T19:43:44.740Z,12.97
2022-10-04T19:46:47.867Z,13.02
2022-10-04T19:49:41.824Z,13.14
2022-10-04T19:52:36.246Z,13.11
2022-10-04T19:55:13.044Z,13.04
2022-10-04T19:57:42.099Z,12.83
2022-10-04T20:00:13.814Z,12.90
2022-10-04T20:02:48.143Z,12.83
2022-10-04T20:05:25.300Z,12.80
2022-10-04T20:07:57.644Z,12.87
2022-10-04T20:10:34.539Z,12.92
2022-10-04T20:13:12.584Z,12.97
2022-10-04T20:15:40.398Z,12.78
2022-10-04T20:18:32.719Z,13.02
2022-10-04T20:21:03.595Z,12.78
2022-10-04T20:23:40.015Z,12.86
2022-10-04T20:26:10.080Z,12.70
2022-10-04T20:28:40.952Z,12.72
2022-10-04T20:31:10.755Z,12.71
2022-10-04T20:33:39.261Z,12.67
2022-10-04T20:36:11.719Z,12.76
2022-10-04T20:38:48.047Z,12.65
2022-10-04T20:41:53.944Z,12.89
2022-10-04T20:44:56.853Z,12.93
2022-10-04T20:47:57.745Z,12.81
2022-10-04T20:50:42.612Z,12.73
2022-10-04T20:53:18.956Z,12.71
2022-10-04T20:55:47.097Z,12.56
2022-10-04T20:58:35.532Z,12.79
2022-10-04T21:01:22.892Z,12.61
2022-10-04T21:03:50.520Z,12.56
2022-10-04T21:06:17.853Z,12.48
2022-10-04T21:08:45.329Z,12.47
2022-10-04T21:11:20.288Z,12.54
2022-10-04T21:13:59.810Z,12.63
2022-10-04T21:16:35.871Z,12.58
2022-10-04T21:19:34.160Z,12.66
2022-10-04T21:22:16.746Z,12.57
2022-10-04T21:24:50.028Z,12.36
2022-10-04T21:27:40.166Z,12.48
2022-10-04T21:30:14.016Z,12.45
2022-10-04T21:32:41.442Z,12.73
2022-10-04T21:35:09.875Z,12.37
2022-10-04T21:37:37.411Z,12.26
2022-10-04T21:40:06.674Z,12.26
2022-10-04T21:42:34.165Z,12.12
2022-10-04T21:45:01.646Z,12.12
2022-10-04T21:47:30.827Z,12.12
2022-10-04T21:49:58.334Z,12.11
2022-10-04T21:52:25.743Z,12.10
2022-10-04T21:54:53.127Z,12.10
2022-10-04T21:57:22.421Z,12.09
2022-10-04T21:59:49.831Z,12.10
2022-10-04T22:02:17.314Z,12.05
2022-10-04T22:04:44.803Z,12.04
2022-10-04T22:07:12.220Z,12.03
2022-10-04T22:09:39.566Z,11.99
2022-10-04T22:12:06.961Z,12.01
2022-10-04T22:14:34.392Z,12.00
2022-10-04T22:17:02.875Z,12.03
2022-10-04T22:19:30.541Z,12.04
2022-10-04T22:21:58.093Z,12.05
2022-10-04T22:24:25.545Z,12.08
2022-10-04T22:26:53.061Z,12.09
2022-10-04T22:29:20.744Z,12.06
2022-10-04T22:31:52.779Z,12.16
2022-10-04T22:34:22.993Z,12.08
2022-10-04T22:36:52.291Z,12.05
2022-10-04T22:39:21.126Z,12.08
2022-10-04T22:41:52.670Z,12.04
2022-10-04T22:44:25.629Z,12.08
2022-10-04T22:46:58.535Z,12.19
2022-10-04T22:49:28.396Z,12.14
2022-10-04T22:51:58.135Z,12.11
2022-10-04T22:54:31.576Z,12.14
2022-10-04T22:56:59.679Z,12.10
2022-10-04T22:59:40.570Z,12.29
2022-10-04T23:02:15.129Z,12.27
2022-10-04T23:04:46.680Z,12.06
2022-10-04T23:07:14.232Z,12.16
2022-10-04T23:09:41.783Z,12.12
2022-10-04T23:12:09.999Z,12.09
2022-10-04T23:14:38.482Z,12.08
2022-10-04T23:17:18.213Z,12.29
2022-10-04T23:19:45.695Z,12.10
2022-10-04T23:22:17.940Z,12.19
2022-10-04T23:24:45.498Z,12.11
2022-10-04T23:27:17.608Z,12.24
2022-10-04T23:29:49.016Z,12.24
2022-10-04T23:32:19.187Z,12.20
2022-10-04T23:34:52.988Z,12.17
2022-10-04T23:37:27.669Z,12.21
2022-10-04T23:39:55.272Z,12.18
2022-10-04T23:42:29.870Z,12.17
2022-10-04T23:44:59.011Z,12.08
2022-10-04T23:47:33.712Z,12.15
2022-10-04T23:50:01.834Z,12.04
2022-10-04T23:52:40.437Z,12.18
2022-10-04T23:55:25.499Z,12.16
2022-10-04T23:57:52.871Z,11.98
